Aérodrome :
LOGIN :

S'inscrire | Disclaimer

   EN    FR    IT 

 










Légende :    VFR   VFR Marginal   IFR   IFR Intensif   IFR Très Intensif
Visi : 
Plafond : 
>= 8 km
>= 3000ft
5 à 8 km
1000 à 3000 ft
1500m à 5 km
500 à 1000 ft
800 à 1500m
200 à 500 ft
< 800m
< 200 ft
Symboles :   Orages  Brouillard  Fortes neiges  Fortes précipitations  Vent > 20 kt
SIGMETs :   Divers  Orages  Givrage  Turbulence  Onde Orograph.  Cendres Volcan.






- Altitude de l'aérodrome : 645 ft
- Code IATA : DLE


LFGJ - Dole Tavaux

METARs EXPIRÉS :
  • 031730Z AUTO 33006G20KT 250V050 9999 VCTS ///CB 19/14 Q1004
  • 031700Z AUTO 04007KT 360V070 CAVOK 19/14 Q1003 TEMPO VRB20G35KT 2000 TSRA SCT040CB

TAF TAF LFGJ
Valide du 03 à 15h jusqu'au 04 à 00h UTC


031400Z 0315/0324 20008KT 9999 FEW050TCU
TEMPO 0315/0324 4000 SHRA FEW040CB
PROB40
TEMPO 0315/0320 VRB20G35KT 2000 TSRA SCT040CB
PROB30
TEMPO 0315/0318 1200 +TSRAGR



MET'MAP, la Météo Aéronautique d'un coup d'oeil ! - Copyright ORBIFLY Décembre 2007 - Disclaimer

ORBIFLY MET'MAP TEAM :

Programmation & Développement : Alexandra Zaïnal
Sur une idée originale de : Baudouin d'Aumeries
Assistance à la programmation : Marc-Olivier Méhu
Soutien technique & logistique : Manuel Goepfert

Contact : metmap@orbifly.com




SOURCES & CREDITS :

   NOAA